sensor_id;sensor_type;location;lat;lon;timestamp;pressure;altitude;pressure_sealevel;temperature;humidity
44825;BME280;30542;47.928;2.138;2023-09-19T00:03:29;100292.44;;;25.00;48.71
44825;BME280;30542;47.928;2.138;2023-09-19T00:08:31;100298.94;;;24.99;48.59
44825;BME280;30542;47.928;2.138;2023-09-19T00:13:33;100301.63;;;24.99;48.58
44825;BME280;30542;47.928;2.138;2023-09-19T00:18:37;100298.94;;;24.99;48.38
44825;BME280;30542;47.928;2.138;2023-09-19T00:23:38;100301.16;;;24.97;48.53
44825;BME280;30542;47.928;2.138;2023-09-19T00:28:41;100309.22;;;24.97;48.50
44825;BME280;30542;47.928;2.138;2023-09-19T00:33:41;100305.75;;;24.97;48.69
44825;BME280;30542;47.928;2.138;2023-09-19T00:38:41;100303.31;;;24.95;48.41
44825;BME280;30542;47.928;2.138;2023-09-19T00:43:44;100311.72;;;24.94;48.66
44825;BME280;30542;47.928;2.138;2023-09-19T00:48:45;100307.72;;;24.91;48.59
44825;BME280;30542;47.928;2.138;2023-09-19T00:53:46;100322.50;;;24.94;48.66
44825;BME280;30542;47.928;2.138;2023-09-19T00:58:47;100323.28;;;24.94;48.49
44825;BME280;30542;47.928;2.138;2023-09-19T01:03:48;100323.88;;;24.91;48.36
44825;BME280;30542;47.928;2.138;2023-09-19T01:08:49;100333.56;;;24.92;48.38
44825;BME280;30542;47.928;2.138;2023-09-19T01:30:14;100360.81;;;24.91;48.27
44825;BME280;30542;47.928;2.138;2023-09-19T01:35:14;100368.09;;;24.90;48.17
44825;BME280;30542;47.928;2.138;2023-09-19T01:40:17;100369.19;;;24.89;48.15
44825;BME280;30542;47.928;2.138;2023-09-19T01:45:30;100346.28;;;24.73;48.00
44825;BME280;30542;47.928;2.138;2023-09-19T01:50:42;100364.88;;;24.88;48.04
44825;BME280;30542;47.928;2.138;2023-09-19T01:55:48;100374.06;;;24.87;47.95
44825;BME280;30542;47.928;2.138;2023-09-19T02:00:50;100374.66;;;24.84;47.86
44825;BME280;30542;47.928;2.138;2023-09-19T02:05:52;100366.06;;;24.82;47.92
44825;BME280;30542;47.928;2.138;2023-09-19T02:10:53;100358.28;;;24.80;47.73
44825;BME280;30542;47.928;2.138;2023-09-19T02:15:54;100367.38;;;24.85;47.77
44825;BME280;30542;47.928;2.138;2023-09-19T02:20:54;100370.34;;;24.83;47.52
44825;BME280;30542;47.928;2.138;2023-09-19T02:25:57;100369.56;;;24.83;47.72
44825;BME280;30542;47.928;2.138;2023-09-19T02:31:06;100367.16;;;24.81;47.38
44825;BME280;30542;47.928;2.138;2023-09-19T02:36:06;100382.53;;;24.80;47.33
44825;BME280;30542;47.928;2.138;2023-09-19T02:41:07;100383.34;;;24.81;47.36
44825;BME280;30542;47.928;2.138;2023-09-19T02:46:08;100380.91;;;24.79;47.22
44825;BME280;30542;47.928;2.138;2023-09-19T02:51:09;100396.81;;;24.81;47.32
44825;BME280;30542;47.928;2.138;2023-09-19T02:56:09;100394.13;;;24.81;47.04
44825;BME280;30542;47.928;2.138;2023-09-19T03:01:12;100394.13;;;24.81;47.23
44825;BME280;30542;47.928;2.138;2023-09-19T03:06:12;100389.31;;;24.78;47.31
44825;BME280;30542;47.928;2.138;2023-09-19T03:11:13;100387.72;;;24.77;47.36
44825;BME280;30542;47.928;2.138;2023-09-19T03:16:15;100380.72;;;24.76;47.37
44825;BME280;30542;47.928;2.138;2023-09-19T03:21:16;100380.72;;;24.76;47.38
44825;BME280;30542;47.928;2.138;2023-09-19T03:26:17;100389.09;;;24.74;47.45
44825;BME280;30542;47.928;2.138;2023-09-19T03:31:17;100375.94;;;24.73;47.40
44825;BME280;30542;47.928;2.138;2023-09-19T03:36:18;100385.09;;;24.72;47.53
44825;BME280;30542;47.928;2.138;2023-09-19T03:41:18;100371.91;;;24.70;47.42
44825;BME280;30542;47.928;2.138;2023-09-19T03:46:20;100368.44;;;24.70;47.48
44825;BME280;30542;47.928;2.138;2023-09-19T03:51:20;100370.41;;;24.64;47.35
44825;BME280;30542;47.928;2.138;2023-09-19T03:56:21;100367.94;;;24.68;47.71
44825;BME280;30542;47.928;2.138;2023-09-19T04:01:21;100374.41;;;24.67;47.68
44825;BME280;30542;47.928;2.138;2023-09-19T04:06:22;100375.50;;;24.66;47.59
44825;BME280;30542;47.928;2.138;2023-09-19T04:11:22;100376.28;;;24.66;47.58
44825;BME280;30542;47.928;2.138;2023-09-19T04:16:22;100364.72;;;24.66;47.52
44825;BME280;30542;47.928;2.138;2023-09-19T04:21:23;100371.47;;;24.63;47.87
44825;BME280;30542;47.928;2.138;2023-09-19T04:26:23;100372.31;;;24.64;47.83
44825;BME280;30542;47.928;2.138;2023-09-19T04:31:23;100365.91;;;24.60;48.36
44825;BME280;30542;47.928;2.138;2023-09-19T04:36:24;100365.31;;;24.63;48.57
44825;BME280;30542;47.928;2.138;2023-09-19T04:41:24;100366.41;;;24.62;47.90
44825;BME280;30542;47.928;2.138;2023-09-19T04:46:25;100361.09;;;24.57;47.17
44825;BME280;30542;47.928;2.138;2023-09-19T04:51:25;100366.06;;;24.49;46.64
44825;BME280;30542;47.928;2.138;2023-09-19T04:56:29;100372.00;;;24.46;46.52
44825;BME280;30542;47.928;2.138;2023-09-19T05:01:30;100374.22;;;24.44;46.16
44825;BME280;30542;47.928;2.138;2023-09-19T05:06:30;100373.69;;;24.42;46.14
44825;BME280;30542;47.928;2.138;2023-09-19T05:11:30;100369.13;;;24.43;46.43
44825;BME280;30542;47.928;2.138;2023-09-19T05:16:31;100370.41;;;24.45;47.11
44825;BME280;30542;47.928;2.138;2023-09-19T05:21:34;100374.72;;;24.46;47.63
44825;BME280;30542;47.928;2.138;2023-09-19T05:26:34;100380.69;;;24.43;47.98
44825;BME280;30542;47.928;2.138;2023-09-19T05:31:35;100391.97;;;24.45;48.19
44825;BME280;30542;47.928;2.138;2023-09-19T05:36:39;100387.16;;;24.42;48.06
44825;BME280;30542;47.928;2.138;2023-09-19T05:41:39;100386.66;;;24.40;47.91
44825;BME280;30542;47.928;2.138;2023-09-19T05:46:40;100388.56;;;24.40;47.86
44825;BME280;30542;47.928;2.138;2023-09-19T05:51:40;100392.59;;;24.37;47.41
44825;BME280;30542;47.928;2.138;2023-09-19T05:56:40;100399.88;;;24.37;48.16
44825;BME280;30542;47.928;2.138;2023-09-19T06:01:42;100401.50;;;24.38;49.22
44825;BME280;30542;47.928;2.138;2023-09-19T06:06:43;100408.25;;;24.35;49.89
44825;BME280;30542;47.928;2.138;2023-09-19T06:11:44;100415.53;;;24.35;49.39
44825;BME280;30542;47.928;2.138;2023-09-19T06:16:45;100410.94;;;24.35;49.25
44825;BME280;30542;47.928;2.138;2023-09-19T06:21:45;100398.47;;;24.20;48.59
44825;BME280;30542;47.928;2.138;2023-09-19T06:26:46;100427.38;;;24.34;48.89
44825;BME280;30542;47.928;2.138;2023-09-19T06:31:47;100423.59;;;24.35;50.04
44825;BME280;30542;47.928;2.138;2023-09-19T06:36:48;100440.56;;;24.35;50.58
44825;BME280;30542;47.928;2.138;2023-09-19T06:41:49;100443.25;;;24.35;50.46
44825;BME280;30542;47.928;2.138;2023-09-19T06:46:49;100444.31;;;24.34;50.35
44825;BME280;30542;47.928;2.138;2023-09-19T06:51:54;100452.69;;;24.33;50.25
44825;BME280;30542;47.928;2.138;2023-09-19T06:56:54;100445.41;;;24.33;50.28
44825;BME280;30542;47.928;2.138;2023-09-19T07:01:55;100451.88;;;24.32;50.18
44825;BME280;30542;47.928;2.138;2023-09-19T07:06:55;100462.66;;;24.32;50.04
44825;BME280;30542;47.928;2.138;2023-09-19T07:11:55;100462.66;;;24.32;49.88
44825;BME280;30542;47.928;2.138;2023-09-19T07:16:56;100448.66;;;24.30;49.59
44825;BME280;30542;47.928;2.138;2023-09-19T07:21:56;100454.88;;;24.30;49.37
44825;BME280;30542;47.928;2.138;2023-09-19T07:26:59;100463.75;;;24.31;48.91
44825;BME280;30542;47.928;2.138;2023-09-19T07:31:59;100474.78;;;24.29;49.21
44825;BME280;30542;47.928;2.138;2023-09-19T07:36:59;100471.03;;;24.30;48.90
44825;BME280;30542;47.928;2.138;2023-09-19T07:42:00;100470.22;;;24.30;49.01
44825;BME280;30542;47.928;2.138;2023-09-19T07:47:00;100473.19;;;24.28;48.74
44825;BME280;30542;47.928;2.138;2023-09-19T07:52:03;100486.34;;;24.30;48.64
44825;BME280;30542;47.928;2.138;2023-09-19T07:57:04;100476.41;;;24.30;48.60
44825;BME280;30542;47.928;2.138;2023-09-19T08:02:04;100485.00;;;24.33;48.44
44825;BME280;30542;47.928;2.138;2023-09-19T08:07:05;100480.13;;;24.35;48.31
44825;BME280;30542;47.928;2.138;2023-09-19T08:12:07;100473.13;;;24.34;48.16
44825;BME280;30542;47.928;2.138;2023-09-19T08:17:10;100469.88;;;24.37;48.15
44825;BME280;30542;47.928;2.138;2023-09-19T08:22:10;100473.91;;;24.34;48.15
44825;BME280;30542;47.928;2.138;2023-09-19T08:27:11;100475.03;;;24.33;48.17
44825;BME280;30542;47.928;2.138;2023-09-19T08:32:12;100478.81;;;24.32;47.96
44825;BME280;30542;47.928;2.138;2023-09-19T08:37:12;100497.13;;;24.30;48.37
44825;BME280;30542;47.928;2.138;2023-09-19T08:42:13;100501.16;;;24.33;48.17
44825;BME280;30542;47.928;2.138;2023-09-19T08:47:26;100484.19;;;24.32;48.09
44825;BME280;30542;47.928;2.138;2023-09-19T08:52:41;100487.97;;;24.31;48.09
44825;BME280;30542;47.928;2.138;2023-09-19T08:57:42;100492.56;;;24.30;47.77
44825;BME280;30542;47.928;2.138;2023-09-19T09:02:49;100480.47;;;24.28;47.64
44825;BME280;30542;47.928;2.138;2023-09-19T09:07:51;100488.56;;;24.28;47.48
44825;BME280;30542;47.928;2.138;2023-09-19T09:12:52;100479.69;;;24.27;47.23
44825;BME280;30542;47.928;2.138;2023-09-19T09:17:56;100461.09;;;24.26;47.08
44825;BME280;30542;47.928;2.138;2023-09-19T09:22:58;100466.78;;;24.24;46.92
44825;BME280;30542;47.928;2.138;2023-09-19T09:28:04;100468.63;;;24.29;46.85
44825;BME280;30542;47.928;2.138;2023-09-19T09:33:14;100457.84;;;24.29;46.94
44825;BME280;30542;47.928;2.138;2023-09-19T09:38:15;100463.22;;;24.29;47.01
44825;BME280;30542;47.928;2.138;2023-09-19T09:43:38;100453.56;;;24.28;46.94
44825;BME280;30542;47.928;2.138;2023-09-19T09:48:40;100454.06;;;24.30;47.02
44825;BME280;30542;47.928;2.138;2023-09-19T09:53:46;100450.28;;;24.31;46.62
44825;BME280;30542;47.928;2.138;2023-09-19T09:58:50;100445.41;;;24.33;46.64
44825;BME280;30542;47.928;2.138;2023-09-19T10:03:58;100447.84;;;24.35;46.82
44825;BME280;30542;47.928;2.138;2023-09-19T10:09:09;100445.94;;;24.35;46.56
44825;BME280;30542;47.928;2.138;2023-09-19T10:14:30;100428.97;;;24.35;46.48
44825;BME280;30542;47.928;2.138;2023-09-19T10:19:58;100430.59;;;24.36;46.52
44825;BME280;30542;47.928;2.138;2023-09-19T10:24:59;100411.50;;;24.32;46.54
44825;BME280;30542;47.928;2.138;2023-09-19T10:30:01;100412.00;;;24.34;46.48
44825;BME280;30542;47.928;2.138;2023-09-19T10:35:04;100419.50;;;24.37;46.45
44825;BME280;30542;47.928;2.138;2023-09-19T10:40:07;100423.81;;;24.38;46.29
44825;BME280;30542;47.928;2.138;2023-09-19T10:45:09;100433.78;;;24.38;46.07
44825;BME280;30542;47.928;2.138;2023-09-19T10:50:20;100422.50;;;24.36;46.05
44825;BME280;30542;47.928;2.138;2023-09-19T10:55:22;100419.00;;;24.35;46.13
44825;BME280;30542;47.928;2.138;2023-09-19T11:00:24;100412.53;;;24.36;45.91
44825;BME280;30542;47.928;2.138;2023-09-19T11:05:27;100415.22;;;24.36;45.97
44825;BME280;30542;47.928;2.138;2023-09-19T11:10:45;100404.47;;;24.36;45.88
44825;BME280;30542;47.928;2.138;2023-09-19T11:16:09;100402.88;;;24.35;45.65
44825;BME280;30542;47.928;2.138;2023-09-19T11:26:41;100394.00;;;24.35;45.53
44825;BME280;30542;47.928;2.138;2023-09-19T11:31:47;100384.28;;;24.34;45.11
44825;BME280;30542;47.928;2.138;2023-09-19T11:36:49;100382.41;;;24.34;45.26
44825;BME280;30542;47.928;2.138;2023-09-19T11:41:50;100392.09;;;24.35;45.61
44825;BME280;30542;47.928;2.138;2023-09-19T11:46:56;100372.81;;;24.28;45.52
44825;BME280;30542;47.928;2.138;2023-09-19T11:52:00;100370.59;;;24.30;45.47
44825;BME280;30542;47.928;2.138;2023-09-19T11:57:09;100374.31;;;24.34;45.40
44825;BME280;30542;47.928;2.138;2023-09-19T12:02:16;100375.94;;;24.35;45.34
44825;BME280;30542;47.928;2.138;2023-09-19T12:07:19;100368.66;;;24.36;45.38
44825;BME280;30542;47.928;2.138;2023-09-19T12:12:23;100377.53;;;24.36;45.32
44825;BME280;30542;47.928;2.138;2023-09-19T12:17:37;100362.97;;;24.37;45.47
44825;BME280;30542;47.928;2.138;2023-09-19T12:22:43;100364.88;;;24.37;45.45
44825;BME280;30542;47.928;2.138;2023-09-19T12:27:48;100360.03;;;24.39;45.52
44825;BME280;30542;47.928;2.138;2023-09-19T12:32:53;100351.97;;;24.39;45.44
44825;BME280;30542;47.928;2.138;2023-09-19T12:37:54;100357.34;;;24.39;45.38
44825;BME280;30542;47.928;2.138;2023-09-19T12:42:55;100354.41;;;24.35;45.65
44825;BME280;30542;47.928;2.138;2023-09-19T12:48:21;100342.78;;;24.40;45.44
44825;BME280;30542;47.928;2.138;2023-09-19T12:53:36;100352.75;;;24.39;45.46
44825;BME280;30542;47.928;2.138;2023-09-19T12:58:51;100324.22;;;24.38;45.27
44825;BME280;30542;47.928;2.138;2023-09-19T13:09:13;100323.69;;;24.36;45.17
44825;BME280;30542;47.928;2.138;2023-09-19T13:19:39;100311.34;;;24.35;44.98
44825;BME280;30542;47.928;2.138;2023-09-19T13:24:40;100314.31;;;24.34;44.69
44825;BME280;30542;47.928;2.138;2023-09-19T13:29:41;100303.03;;;24.31;44.64
44825;BME280;30542;47.928;2.138;2023-09-19T13:34:42;100310.81;;;24.33;44.26
44825;BME280;30542;47.928;2.138;2023-09-19T13:39:42;100305.44;;;24.33;44.53
44825;BME280;30542;47.928;2.138;2023-09-19T13:44:47;100303.84;;;24.32;44.60
44825;BME280;30542;47.928;2.138;2023-09-19T13:49:48;100301.63;;;24.34;44.56
44825;BME280;30542;47.928;2.138;2023-09-19T13:54:50;100295.47;;;24.34;44.60
44825;BME280;30542;47.928;2.138;2023-09-19T13:59:51;100285.47;;;24.34;44.62
44825;BME280;30542;47.928;2.138;2023-09-19T14:04:53;100289.78;;;24.35;44.64
44825;BME280;30542;47.928;2.138;2023-09-19T14:09:53;100290.88;;;24.34;44.67
44825;BME280;30542;47.928;2.138;2023-09-19T14:14:54;100289.78;;;24.35;44.57
44825;BME280;30542;47.928;2.138;2023-09-19T14:19:56;100283.63;;;24.35;44.41
44825;BME280;30542;47.928;2.138;2023-09-19T14:24:56;100277.41;;;24.34;44.39
44825;BME280;30542;47.928;2.138;2023-09-19T14:29:57;100263.47;;;24.32;44.36
44825;BME280;30542;47.928;2.138;2023-09-19T14:34:57;100252.38;;;24.34;44.22
44825;BME280;30542;47.928;2.138;2023-09-19T14:39:57;100254.28;;;24.33;43.86
44825;BME280;30542;47.928;2.138;2023-09-19T14:44:58;100241.91;;;24.32;44.10
44825;BME280;30542;47.928;2.138;2023-09-19T14:50:00;100250.78;;;24.33;44.15
44825;BME280;30542;47.928;2.138;2023-09-19T14:55:01;100258.88;;;24.33;44.20
44825;BME280;30542;47.928;2.138;2023-09-19T15:00:01;100252.69;;;24.32;44.00
44825;BME280;30542;47.928;2.138;2023-09-19T15:05:06;100247.63;;;24.30;43.77
44825;BME280;30542;47.928;2.138;2023-09-19T15:10:08;100246.78;;;24.30;43.91
44825;BME280;30542;47.928;2.138;2023-09-19T15:15:09;100230.63;;;24.30;43.90
44825;BME280;30542;47.928;2.138;2023-09-19T15:20:10;100236.53;;;24.32;43.87
44825;BME280;30542;47.928;2.138;2023-09-19T15:25:14;100231.94;;;24.33;43.99
44825;BME280;30542;47.928;2.138;2023-09-19T15:30:14;100224.97;;;24.31;43.96
44825;BME280;30542;47.928;2.138;2023-09-19T15:35:15;100229.25;;;24.33;44.06
44825;BME280;30542;47.928;2.138;2023-09-19T15:40:17;100224.66;;;24.33;44.21
44825;BME280;30542;47.928;2.138;2023-09-19T15:45:17;100220.38;;;24.32;44.16
44825;BME280;30542;47.928;2.138;2023-09-19T15:50:19;100221.97;;;24.33;44.04
44825;BME280;30542;47.928;2.138;2023-09-19T15:55:19;100215.81;;;24.33;44.38
44825;BME280;30542;47.928;2.138;2023-09-19T16:00:19;100210.41;;;24.33;44.17
44825;BME280;30542;47.928;2.138;2023-09-19T16:05:20;100214.22;;;24.31;44.20
44825;BME280;30542;47.928;2.138;2023-09-19T16:10:21;100205.81;;;24.33;43.92
44825;BME280;30542;47.928;2.138;2023-09-19T16:15:23;100218.50;;;24.33;43.89
44825;BME280;30542;47.928;2.138;2023-09-19T16:20:23;100208.81;;;24.31;43.96
44825;BME280;30542;47.928;2.138;2023-09-19T16:25:23;100213.41;;;24.31;43.89
44825;BME280;30542;47.928;2.138;2023-09-19T16:30:24;100201.03;;;24.30;44.01
44825;BME280;30542;47.928;2.138;2023-09-19T16:35:25;100199.44;;;24.29;44.15
44825;BME280;30542;47.928;2.138;2023-09-19T16:40:25;100202.66;;;24.31;44.15
44825;BME280;30542;47.928;2.138;2023-09-19T16:45:25;100196.47;;;24.30;44.29
44825;BME280;30542;47.928;2.138;2023-09-19T16:50:25;100205.03;;;24.33;44.10
44825;BME280;30542;47.928;2.138;2023-09-19T16:55:26;100204.25;;;24.32;44.22
44825;BME280;30542;47.928;2.138;2023-09-19T17:00:27;100198.84;;;24.32;44.30
44825;BME280;30542;47.928;2.138;2023-09-19T17:05:29;100204.25;;;24.32;44.41
44825;BME280;30542;47.928;2.138;2023-09-19T17:10:33;100196.25;;;24.27;44.62
44825;BME280;30542;47.928;2.138;2023-09-19T17:15:34;100207.25;;;24.30;44.71
44825;BME280;30542;47.928;2.138;2023-09-19T17:20:34;100200.22;;;24.29;44.77
44825;BME280;30542;47.928;2.138;2023-09-19T17:25:40;100198.34;;;24.30;44.80
44825;BME280;30542;47.928;2.138;2023-09-19T17:30:41;100202.66;;;24.31;44.81
44825;BME280;30542;47.928;2.138;2023-09-19T17:35:41;100196.97;;;24.33;44.85
44825;BME280;30542;47.928;2.138;2023-09-19T17:40:42;100198.84;;;24.32;44.44
44825;BME280;30542;47.928;2.138;2023-09-19T17:45:43;100200.44;;;24.33;45.01
44825;BME280;30542;47.928;2.138;2023-09-19T17:50:43;100202.34;;;24.33;45.15
44825;BME280;30542;47.928;2.138;2023-09-19T17:55:44;100200.75;;;24.31;45.17
44825;BME280;30542;47.928;2.138;2023-09-19T18:00:44;100193.97;;;24.34;45.21
44825;BME280;30542;47.928;2.138;2023-09-19T18:05:44;100196.66;;;24.34;45.31
44825;BME280;30542;47.928;2.138;2023-09-19T18:10:45;100197.47;;;24.35;45.38
44825;BME280;30542;47.928;2.138;2023-09-19T18:15:45;100184.00;;;24.35;45.54
44825;BME280;30542;47.928;2.138;2023-09-19T18:20:46;100186.97;;;24.33;45.56
44825;BME280;30542;47.928;2.138;2023-09-19T18:25:47;100185.88;;;24.34;45.65
44825;BME280;30542;47.928;2.138;2023-09-19T18:30:48;100175.94;;;24.35;45.69
44825;BME280;30542;47.928;2.138;2023-09-19T18:35:49;100174.84;;;24.36;45.87
44825;BME280;30542;47.928;2.138;2023-09-19T18:40:49;100168.13;;;24.33;46.01
44825;BME280;30542;47.928;2.138;2023-09-19T18:45:57;100170.03;;;24.33;46.43
44825;BME280;30542;47.928;2.138;2023-09-19T18:51:06;100177.78;;;24.39;46.52
44825;BME280;30542;47.928;2.138;2023-09-19T18:56:11;100171.78;;;24.42;46.39
44825;BME280;30542;47.928;2.138;2023-09-19T19:01:14;100179.25;;;24.45;46.60
44825;BME280;30542;47.928;2.138;2023-09-19T19:06:16;100171.19;;;24.45;46.68
44825;BME280;30542;47.928;2.138;2023-09-19T19:11:17;100171.97;;;24.46;46.66
44825;BME280;30542;47.928;2.138;2023-09-19T19:16:19;100177.97;;;24.43;46.67
44825;BME280;30542;47.928;2.138;2023-09-19T19:21:20;100184.16;;;24.43;46.69
44825;BME280;30542;47.928;2.138;2023-09-19T19:26:23;100183.84;;;24.45;46.79
44825;BME280;30542;47.928;2.138;2023-09-19T19:31:24;100181.47;;;24.43;46.78
44825;BME280;30542;47.928;2.138;2023-09-19T19:36:25;100180.94;;;24.41;46.80
44825;BME280;30542;47.928;2.138;2023-09-19T19:41:26;100197.91;;;24.42;46.80
44825;BME280;30542;47.928;2.138;2023-09-19T19:46:26;100211.34;;;24.42;46.76
44825;BME280;30542;47.928;2.138;2023-09-19T19:51:27;100215.66;;;24.43;46.85
44825;BME280;30542;47.928;2.138;2023-09-19T19:56:28;100216.47;;;24.43;46.91
44825;BME280;30542;47.928;2.138;2023-09-19T20:01:30;100220.16;;;24.47;46.85
44825;BME280;30542;47.928;2.138;2023-09-19T20:06:31;100224.94;;;24.50;46.76
44825;BME280;30542;47.928;2.138;2023-09-19T20:11:31;100216.38;;;24.48;46.85
44825;BME280;30542;47.928;2.138;2023-09-19T20:16:33;100222.44;;;24.54;46.97
44825;BME280;30542;47.928;2.138;2023-09-19T20:21:36;100224.03;;;24.55;47.01
44825;BME280;30542;47.928;2.138;2023-09-19T20:26:36;100236.44;;;24.56;46.96
44825;BME280;30542;47.928;2.138;2023-09-19T20:31:39;100226.72;;;24.55;47.11
44825;BME280;30542;47.928;2.138;2023-09-19T20:36:39;100230.25;;;24.55;47.11
44825;BME280;30542;47.928;2.138;2023-09-19T20:41:40;100229.44;;;24.55;47.02
44825;BME280;30542;47.928;2.138;2023-09-19T20:46:40;100236.44;;;24.56;47.11
44825;BME280;30542;47.928;2.138;2023-09-19T20:51:42;100228.34;;;24.56;47.03
44825;BME280;30542;47.928;2.138;2023-09-19T20:56:42;100231.84;;;24.57;47.20
44825;BME280;30542;47.928;2.138;2023-09-19T21:01:42;100220.56;;;24.54;47.08
44825;BME280;30542;47.928;2.138;2023-09-19T21:06:43;100221.66;;;24.53;47.08
44825;BME280;30542;47.928;2.138;2023-09-19T21:11:44;100217.06;;;24.54;47.04
44825;BME280;30542;47.928;2.138;2023-09-19T21:16:45;100215.47;;;24.53;47.12
44825;BME280;30542;47.928;2.138;2023-09-19T21:21:45;100213.09;;;24.51;47.36
44825;BME280;30542;47.928;2.138;2023-09-19T21:26:48;100211.47;;;24.50;47.20
44825;BME280;30542;47.928;2.138;2023-09-19T21:31:51;100205.28;;;24.50;47.40
44825;BME280;30542;47.928;2.138;2023-09-19T21:36:52;100199.09;;;24.49;47.57
44825;BME280;30542;47.928;2.138;2023-09-19T21:41:53;100192.94;;;24.49;47.91
44825;BME280;30542;47.928;2.138;2023-09-19T21:46:53;100190.53;;;24.47;47.57
44825;BME280;30542;47.928;2.138;2023-09-19T21:51:57;100189.75;;;24.47;47.93
44825;BME280;30542;47.928;2.138;2023-09-19T21:56:57;100185.44;;;24.46;48.00
44825;BME280;30542;47.928;2.138;2023-09-19T22:01:57;100185.44;;;24.46;47.95
44825;BME280;30542;47.928;2.138;2023-09-19T22:06:59;100181.94;;;24.45;48.11
44825;BME280;30542;47.928;2.138;2023-09-19T22:11:59;100166.22;;;24.39;48.00
44825;BME280;30542;47.928;2.138;2023-09-19T22:17:01;100168.50;;;24.45;48.14
44825;BME280;30542;47.928;2.138;2023-09-19T22:22:01;100171.19;;;24.45;48.18
44825;BME280;30542;47.928;2.138;2023-09-19T22:27:03;100177.38;;;24.46;48.16
44825;BME280;30542;47.928;2.138;2023-09-19T22:32:03;100173.88;;;24.45;48.31
44825;BME280;30542;47.928;2.138;2023-09-19T22:37:07;100155.03;;;24.45;48.21
44825;BME280;30542;47.928;2.138;2023-09-19T22:42:09;100153.94;;;24.46;48.22
44825;BME280;30542;47.928;2.138;2023-09-19T22:47:11;100161.50;;;24.44;48.30
44825;BME280;30542;47.928;2.138;2023-09-19T22:52:12;100155.34;;;24.44;48.36
44825;BME280;30542;47.928;2.138;2023-09-19T22:57:14;100156.63;;;24.46;48.22
44825;BME280;30542;47.928;2.138;2023-09-19T23:02:14;100153.94;;;24.46;48.23
44825;BME280;30542;47.928;2.138;2023-09-19T23:07:15;100157.72;;;24.45;48.27
44825;BME280;30542;47.928;2.138;2023-09-19T23:12:15;100143.47;;;24.45;48.36
44825;BME280;30542;47.928;2.138;2023-09-19T23:17:19;100141.56;;;24.45;48.42
44825;BME280;30542;47.928;2.138;2023-09-19T23:22:22;100136.19;;;24.45;48.38
44825;BME280;30542;47.928;2.138;2023-09-19T23:27:23;100135.69;;;24.43;48.49
44825;BME280;30542;47.928;2.138;2023-09-19T23:32:33;100123.31;;;24.42;48.51
44825;BME280;30542;47.928;2.138;2023-09-19T23:37:33;100120.63;;;24.42;48.56
44825;BME280;30542;47.928;2.138;2023-09-19T23:42:35;100126.00;;;24.42;48.61
44825;BME280;30542;47.928;2.138;2023-09-19T23:47:35;100124.41;;;24.41;48.55
44825;BME280;30542;47.928;2.138;2023-09-19T23:52:36;100123.63;;;24.41;48.67
44825;BME280;30542;47.928;2.138;2023-09-19T23:57:36;100116.66;;;24.40;48.65
